Time;durP1;ratioP1;P1;durP2;ratioP2;P2;SDS_P1;SDS_P2;PMS_P1;PMS_P2;Temp;Humidity;BMP_temperature;BMP_pressure;BME280_temperature;BME280_humidity;BME280_pressure;Samples;Min_cycle;Max_cycle;Signal;HPM_P1;HPM_P2
2022/11/30 00:00:15;;;;;;;12.68;7.70;;;;;;;;;;10385131;28;20030;-64
2022/11/30 00:05:16;;;;;;;14.73;7.57;;;;;;;;;;10383631;28;20034;-63
2022/11/30 00:10:17;;;;;;;11.70;7.47;;;;;;;;;;10392080;28;20022;-63
2022/11/30 00:15:18;;;;;;;11.75;7.10;;;;;;;;;;10372908;28;20075;-62
2022/11/30 00:20:18;;;;;;;11.63;7.13;;;;;;;;;;10390881;28;20041;-63
2022/11/30 00:25:19;;;;;;;10.95;6.88;;;;;;;;;;10393216;28;20053;-62
2022/11/30 00:30:19;;;;;;;11.32;6.78;;;;;;;;;;10376360;28;20033;-63
2022/11/30 00:35:20;;;;;;;14.93;6.93;;;;;;;;;;10369713;28;20061;-62
2022/11/30 00:40:22;;;;;;;15.07;7.35;;;;;;;;;;10369274;28;20461;-63
2022/11/30 00:45:22;;;;;;;11.93;7.40;;;;;;;;;;10371335;28;20022;-63
2022/11/30 00:50:23;;;;;;;8.88;6.70;;;;;;;;;;10369314;28;20029;-63
2022/11/30 00:55:23;;;;;;;9.93;7.05;;;;;;;;;;10370348;28;20057;-62
2022/11/30 01:00:24;;;;;;;10.18;6.38;;;;;;;;;;10369439;28;20026;-63
2022/11/30 01:05:25;;;;;;;9.35;6.20;;;;;;;;;;10368701;28;20113;-63
2022/11/30 01:10:25;;;;;;;12.35;7.03;;;;;;;;;;10354288;28;20030;-63
2022/11/30 01:15:26;;;;;;;10.88;6.28;;;;;;;;;;10376950;28;20033;-63
2022/11/30 01:20:27;;;;;;;9.30;6.63;;;;;;;;;;10361413;28;20537;-63
2022/11/30 01:25:27;;;;;;;9.20;6.63;;;;;;;;;;10373375;28;20309;-63
2022/11/30 01:30:28;;;;;;;9.00;6.00;;;;;;;;;;10408544;28;20037;-62
2022/11/30 01:35:29;;;;;;;11.65;6.40;;;;;;;;;;10407741;28;20473;-63
2022/11/30 01:40:29;;;;;;;9.45;6.07;;;;;;;;;;10403985;28;20170;-62
2022/11/30 01:45:30;;;;;;;7.85;5.90;;;;;;;;;;10423764;28;20496;-63
2022/11/30 01:50:34;;;;;;;10.75;6.30;;;;;;;;;;10416751;28;20072;-62
2022/11/30 01:55:43;;;;;;;7.55;5.82;;;;;;;;;;10390707;28;20107;-63
2022/11/30 02:00:46;;;;;;;9.00;5.80;;;;;;;;;;10389391;28;20025;-63
2022/11/30 02:05:48;;;;;;;9.38;6.18;;;;;;;;;;10408069;28;20104;-63
2022/11/30 02:10:57;;;;;;;9.93;5.63;;;;;;;;;;10387262;28;20253;-63
2022/11/30 02:16:41;;;;;;;9.50;6.18;;;;;;;;;;10381597;28;20068;-63
2022/11/30 02:22:34;;;;;;;7.32;5.85;;;;;;;;;;10406341;28;20112;-62
2022/11/30 02:28:11;;;;;;;8.95;5.95;;;;;;;;;;10406194;28;20048;-62
2022/11/30 02:33:24;;;;;;;11.98;6.13;;;;;;;;;;10405820;28;20110;-62
2022/11/30 02:38:26;;;;;;;8.98;6.28;;;;;;;;;;10390398;28;20465;-61
2022/11/30 02:43:29;;;;;;;9.35;5.88;;;;;;;;;;10396697;28;20041;-61
2022/11/30 02:49:16;;;;;;;8.25;5.85;;;;;;;;;;10389659;28;20289;-63
2022/11/30 02:54:17;;;;;;;11.00;6.50;;;;;;;;;;10404497;28;20503;-62
2022/11/30 02:59:19;;;;;;;10.15;5.82;;;;;;;;;;10388703;28;20037;-63
2022/11/30 03:04:19;;;;;;;8.80;5.40;;;;;;;;;;10376103;28;20036;-61
2022/11/30 03:09:20;;;;;;;8.00;5.80;;;;;;;;;;10403985;28;20040;-63
2022/11/30 03:14:20;;;;;;;8.02;5.75;;;;;;;;;;10393902;28;20026;-60
2022/11/30 03:19:21;;;;;;;10.77;5.80;;;;;;;;;;10401684;28;20045;-60
2022/11/30 03:24:22;;;;;;;8.98;5.68;;;;;;;;;;10398461;28;20037;-60
2022/11/30 03:29:22;;;;;;;7.22;5.25;;;;;;;;;;10405593;28;20511;-60
2022/11/30 03:34:25;;;;;;;7.38;5.05;;;;;;;;;;10405123;28;20029;-60
2022/11/30 03:39:26;;;;;;;9.23;6.07;;;;;;;;;;10405996;28;20053;-60
2022/11/30 03:44:26;;;;;;;7.60;4.90;;;;;;;;;;10404889;28;20156;-60
2022/11/30 03:49:27;;;;;;;5.65;4.95;;;;;;;;;;10393655;28;20029;-62
2022/11/30 03:54:27;;;;;;;6.30;5.50;;;;;;;;;;10413762;28;20036;-59
2022/11/30 03:59:28;;;;;;;7.65;5.22;;;;;;;;;;10412695;28;20067;-59
2022/11/30 04:04:28;;;;;;;8.98;5.22;;;;;;;;;;10411200;28;20120;-59
2022/11/30 04:09:30;;;;;;;6.00;4.82;;;;;;;;;;10412058;28;20036;-60
2022/11/30 04:14:30;;;;;;;11.10;5.25;;;;;;;;;;10408330;28;20038;-61
2022/11/30 04:19:31;;;;;;;6.80;4.72;;;;;;;;;;10412002;28;20033;-60
2022/11/30 04:24:31;;;;;;;8.43;5.82;;;;;;;;;;10407682;28;20072;-60
2022/11/30 04:29:32;;;;;;;6.57;4.95;;;;;;;;;;10401617;28;20037;-60
2022/11/30 04:34:32;;;;;;;6.22;5.32;;;;;;;;;;10391407;28;20037;-61
2022/11/30 04:39:34;;;;;;;6.18;4.97;;;;;;;;;;10401583;28;20045;-60
2022/11/30 04:44:34;;;;;;;6.45;5.20;;;;;;;;;;10379459;28;20026;-60
2022/11/30 04:49:35;;;;;;;6.88;5.40;;;;;;;;;;10405945;28;20037;-60
2022/11/30 04:54:36;;;;;;;9.68;4.88;;;;;;;;;;10376833;28;20101;-61
2022/11/30 04:59:36;;;;;;;6.40;4.90;;;;;;;;;;10407832;28;20062;-61
2022/11/30 05:04:37;;;;;;;7.60;4.80;;;;;;;;;;10404422;28;20052;-60
2022/11/30 05:09:37;;;;;;;7.85;5.53;;;;;;;;;;10407774;28;20029;-60
2022/11/30 05:14:38;;;;;;;6.05;4.95;;;;;;;;;;10384410;28;20045;-60
2022/11/30 05:19:39;;;;;;;7.88;5.38;;;;;;;;;;10407233;28;20021;-60
2022/11/30 05:24:39;;;;;;;6.47;4.93;;;;;;;;;;10372487;28;20563;-60
2022/11/30 05:29:40;;;;;;;5.68;5.07;;;;;;;;;;10407377;28;20141;-60
2022/11/30 05:34:40;;;;;;;6.13;5.32;;;;;;;;;;10407287;28;20029;-60
2022/11/30 05:39:41;;;;;;;5.90;4.80;;;;;;;;;;10408599;28;20041;-60
2022/11/30 05:44:42;;;;;;;7.13;4.82;;;;;;;;;;10402860;28;20044;-60
2022/11/30 05:49:42;;;;;;;7.20;5.22;;;;;;;;;;10406696;28;20017;-59
2022/11/30 05:54:43;;;;;;;4.97;4.28;;;;;;;;;;10417486;28;20036;-59
2022/11/30 05:59:43;;;;;;;7.00;5.03;;;;;;;;;;10407484;28;20240;-59
2022/11/30 06:04:44;;;;;;;5.55;4.80;;;;;;;;;;10404666;28;20041;-60
2022/11/30 06:09:44;;;;;;;5.85;4.65;;;;;;;;;;10407896;28;20033;-60
2022/11/30 06:14:45;;;;;;;5.63;4.45;;;;;;;;;;10399208;28;20025;-62
2022/11/30 06:19:46;;;;;;;7.53;5.25;;;;;;;;;;10396190;28;20041;-60
2022/11/30 06:24:46;;;;;;;6.50;5.10;;;;;;;;;;10400672;28;20080;-60
2022/11/30 06:29:47;;;;;;;10.80;5.05;;;;;;;;;;10404577;28;20119;-61
2022/11/30 06:34:48;;;;;;;9.40;6.13;;;;;;;;;;10396919;28;20037;-61
2022/11/30 06:39:48;;;;;;;12.05;6.25;;;;;;;;;;10405213;28;20030;-60
2022/11/30 06:44:49;;;;;;;9.82;5.55;;;;;;;;;;10402194;28;20489;-61
2022/11/30 06:49:49;;;;;;;11.52;7.30;;;;;;;;;;10406310;28;20492;-63
2022/11/30 06:54:50;;;;;;;10.43;6.30;;;;;;;;;;10404018;28;20423;-60
2022/11/30 06:59:50;;;;;;;9.05;6.15;;;;;;;;;;10394835;28;20029;-60
2022/11/30 07:04:51;;;;;;;10.85;6.03;;;;;;;;;;10396987;28;20297;-60
2022/11/30 07:09:51;;;;;;;10.23;6.18;;;;;;;;;;10382310;28;20044;-60
2022/11/30 07:14:55;;;;;;;10.40;6.40;;;;;;;;;;10399270;28;20030;-61
2022/11/30 07:19:56;;;;;;;8.65;6.78;;;;;;;;;;10406061;28;20029;-60
2022/11/30 07:30:15;;;;;;;12.38;6.93;;;;;;;;;;10412917;28;20029;-61
2022/11/30 07:35:16;;;;;;;15.90;6.82;;;;;;;;;;10413713;28;20495;-60
2022/11/30 07:40:17;;;;;;;8.75;6.68;;;;;;;;;;10413696;28;20370;-60
2022/11/30 07:45:17;;;;;;;12.73;7.15;;;;;;;;;;10411627;28;20116;-60
2022/11/30 07:50:18;;;;;;;15.80;6.57;;;;;;;;;;10410899;28;20033;-60
2022/11/30 07:55:22;;;;;;;11.13;6.60;;;;;;;;;;10413410;28;20045;-60
2022/11/30 08:00:22;;;;;;;10.15;6.75;;;;;;;;;;10411431;28;20484;-61
2022/11/30 08:05:23;;;;;;;10.43;6.93;;;;;;;;;;10410810;28;20034;-60
2022/11/30 08:10:24;;;;;;;9.65;6.80;;;;;;;;;;10411814;28;20029;-61
2022/11/30 08:15:24;;;;;;;8.30;6.68;;;;;;;;;;10410444;28;20087;-61
2022/11/30 08:20:25;;;;;;;11.70;7.13;;;;;;;;;;10412119;28;20464;-61
2022/11/30 08:25:25;;;;;;;9.40;6.32;;;;;;;;;;10410490;28;20092;-60
2022/11/30 08:30:26;;;;;;;10.68;7.15;;;;;;;;;;10411537;28;20033;-60
2022/11/30 08:35:27;;;;;;;9.45;6.93;;;;;;;;;;10410794;28;20053;-60
2022/11/30 08:40:27;;;;;;;10.25;7.40;;;;;;;;;;10409387;28;20026;-60
2022/11/30 08:45:28;;;;;;;9.50;7.15;;;;;;;;;;10394353;28;20044;-60
2022/11/30 08:50:28;;;;;;;9.48;6.95;;;;;;;;;;10394125;28;20473;-61
2022/11/30 08:55:29;;;;;;;11.00;7.60;;;;;;;;;;10405991;28;20045;-60
2022/11/30 09:00:29;;;;;;;9.45;7.05;;;;;;;;;;10395271;28;20033;-60
2022/11/30 09:05:30;;;;;;;8.55;6.70;;;;;;;;;;10398937;28;20355;-60
2022/11/30 09:10:31;;;;;;;9.98;7.22;;;;;;;;;;10408732;28;20040;-60
2022/11/30 09:15:31;;;;;;;11.98;7.28;;;;;;;;;;10407777;28;20372;-60
2022/11/30 09:20:32;;;;;;;10.15;7.25;;;;;;;;;;10408338;28;20102;-60
2022/11/30 09:25:33;;;;;;;8.73;6.20;;;;;;;;;;10404846;28;20281;-60
2022/11/30 09:30:34;;;;;;;8.95;7.13;;;;;;;;;;10407091;28;20307;-61
2022/11/30 09:35:35;;;;;;;10.20;6.72;;;;;;;;;;10408793;28;20358;-60
2022/11/30 09:40:37;;;;;;;15.73;6.85;;;;;;;;;;10408636;28;20038;-61
2022/11/30 09:45:52;;;;;;;10.90;6.68;;;;;;;;;;10390424;28;20033;-60
2022/11/30 09:50:55;;;;;;;8.80;6.60;;;;;;;;;;10393501;28;20032;-61
2022/11/30 09:55:58;;;;;;;8.38;6.90;;;;;;;;;;10393896;28;20044;-60
2022/11/30 10:00:59;;;;;;;10.35;6.80;;;;;;;;;;10391051;28;20032;-60
2022/11/30 10:06:45;;;;;;;9.57;7.10;;;;;;;;;;10408470;28;20021;-60
2022/11/30 10:12:03;;;;;;;11.10;6.97;;;;;;;;;;10407871;28;20029;-61
2022/11/30 10:17:44;;;;;;;8.52;6.20;;;;;;;;;;10389282;28;20128;-60
2022/11/30 10:23:05;;;;;;;9.23;6.47;;;;;;;;;;10406779;28;20037;-60
2022/11/30 10:28:22;;;;;;;8.10;6.60;;;;;;;;;;10406742;28;20163;-62
2022/11/30 10:33:33;;;;;;;11.30;6.22;;;;;;;;;;10394134;28;20353;-60
2022/11/30 10:38:47;;;;;;;8.70;6.10;;;;;;;;;;10407224;28;20026;-60
2022/11/30 10:44:10;;;;;;;7.55;5.95;;;;;;;;;;10376963;28;20112;-60
2022/11/30 10:49:15;;;;;;;8.82;6.70;;;;;;;;;;10387721;28;20476;-61
2022/11/30 10:54:20;;;;;;;8.40;6.03;;;;;;;;;;10370237;28;20022;-61
2022/11/30 10:59:33;;;;;;;7.38;6.03;;;;;;;;;;10357555;28;20025;-60
2022/11/30 11:04:33;;;;;;;9.55;6.00;;;;;;;;;;10385878;28;20049;-62
2022/11/30 11:09:51;;;;;;;8.05;5.75;;;;;;;;;;10412912;28;20033;-61
2022/11/30 11:15:24;;;;;;;7.72;6.05;;;;;;;;;;10382680;28;20058;-60
2022/11/30 11:20:34;;;;;;;6.65;5.70;;;;;;;;;;10386657;28;20029;-60
2022/11/30 11:25:36;;;;;;;10.05;6.28;;;;;;;;;;10394215;28;20046;-62
2022/11/30 11:30:37;;;;;;;7.07;5.50;;;;;;;;;;10393287;28;20473;-62
2022/11/30 11:35:45;;;;;;;9.98;6.03;;;;;;;;;;10394935;28;20109;-60
2022/11/30 11:41:01;;;;;;;7.90;5.95;;;;;;;;;;10408534;28;20025;-60
2022/11/30 11:46:11;;;;;;;8.60;6.32;;;;;;;;;;10385856;28;20488;-60
2022/11/30 11:51:27;;;;;;;5.85;5.15;;;;;;;;;;10417731;28;20029;-60
2022/11/30 11:56:35;;;;;;;6.80;5.47;;;;;;;;;;10367708;28;20033;-62
2022/11/30 12:02:29;;;;;;;7.70;5.85;;;;;;;;;;10373437;28;20026;-60
2022/11/30 12:08:01;;;;;;;6.57;5.65;;;;;;;;;;10326710;28;20060;-60
2022/11/30 12:13:15;;;;;;;8.63;6.00;;;;;;;;;;10374057;28;20038;-61
2022/11/30 12:18:26;;;;;;;7.05;5.63;;;;;;;;;;10387631;28;20022;-60
2022/11/30 12:24:16;;;;;;;6.57;5.20;;;;;;;;;;10365029;28;20037;-60
2022/11/30 12:29:23;;;;;;;6.75;5.53;;;;;;;;;;10404431;28;20042;-60
2022/11/30 12:34:57;;;;;;;6.63;5.53;;;;;;;;;;10409389;28;20029;-60
2022/11/30 12:40:36;;;;;;;10.73;5.53;;;;;;;;;;10346018;28;20065;-61
2022/11/30 12:45:43;;;;;;;7.50;5.85;;;;;;;;;;10379036;28;20392;-60
2022/11/30 12:50:55;;;;;;;6.72;5.45;;;;;;;;;;10387643;28;20106;-60
2022/11/30 12:56:21;;;;;;;6.35;5.13;;;;;;;;;;10381170;28;20392;-60
2022/11/30 13:01:45;;;;;;;6.32;4.90;;;;;;;;;;10392712;28;20026;-62
2022/11/30 13:07:19;;;;;;;9.15;5.20;;;;;;;;;;10406582;28;20473;-60
2022/11/30 13:12:37;;;;;;;6.32;4.80;;;;;;;;;;10405463;28;20037;-60
2022/11/30 13:17:38;;;;;;;10.97;5.50;;;;;;;;;;10378958;28;20033;-60
2022/11/30 13:22:54;;;;;;;7.10;4.97;;;;;;;;;;10403999;28;20044;-60
2022/11/30 13:28:12;;;;;;;6.53;4.97;;;;;;;;;;10384641;28;20059;-60
2022/11/30 13:33:47;;;;;;;;;;;;;;;;;;10408580;28;20406;-60
2022/11/30 13:39:12;;;;;;;5.65;4.82;;;;;;;;;;10368260;28;19917;-60
2022/11/30 13:44:31;;;;;;;7.50;4.75;;;;;;;;;;10406639;28;20046;-60
2022/11/30 13:49:40;;;;;;;;;;;;;;;;;;10400185;28;20083;-60
2022/11/30 13:59:59;;;;;;;7.53;5.05;;;;;;;;;;12557171;22;20045;-57
2022/11/30 14:05:17;;;;;;;5.45;4.38;;;;;;;;;;10444591;28;20400;-60
2022/11/30 14:10:43;;;;;;;6.22;4.53;;;;;;;;;;10420930;28;20348;-60
2022/11/30 14:15:43;;;;;;;5.93;4.53;;;;;;;;;;10488559;28;20037;-59
2022/11/30 14:20:59;;;;;;;6.35;4.60;;;;;;;;;;10479412;28;20045;-59
2022/11/30 14:26:08;;;;;;;8.07;5.47;;;;;;;;;;10464592;28;20035;-59
2022/11/30 14:31:26;;;;;;;5.00;4.50;;;;;;;;;;10477334;28;20056;-59
2022/11/30 14:36:40;;;;;;;5.17;4.17;;;;;;;;;;10470475;28;20394;-59
2022/11/30 14:41:41;;;;;;;5.47;4.25;;;;;;;;;;10485667;28;20470;-61
2022/11/30 14:46:41;;;;;;;6.07;4.13;;;;;;;;;;10483931;28;20040;-59
2022/11/30 14:51:59;;;;;;;5.15;4.10;;;;;;;;;;10486091;28;20037;-59
2022/11/30 14:57:14;;;;;;;6.17;4.50;;;;;;;;;;10485699;28;20036;-59
2022/11/30 15:02:36;;;;;;;6.18;4.50;;;;;;;;;;10465925;28;20056;-58
2022/11/30 15:07:37;;;;;;;7.63;4.22;;;;;;;;;;10482062;28;20067;-57
2022/11/30 15:12:40;;;;;;;4.57;3.65;;;;;;;;;;10483136;28;20074;-55
2022/11/30 15:18:12;;;;;;;5.50;4.35;;;;;;;;;;10483264;28;20399;-56
2022/11/30 15:23:14;;;;;;;6.53;4.32;;;;;;;;;;10480114;28;20079;-57
2022/11/30 15:28:23;;;;;;;5.70;4.13;;;;;;;;;;10428139;23;20056;-61
2022/11/30 15:33:27;;;;;;;;;;;;;;;;;;10405134;28;20030;-61
2022/11/30 15:38:27;;;;;;;4.82;3.88;;;;;;;;;;10442461;28;20368;-61
2022/11/30 15:43:38;;;;;;;6.15;4.50;;;;;;;;;;10447059;28;20029;-62
2022/11/30 15:48:39;;;;;;;4.80;3.83;;;;;;;;;;10450107;28;20070;-62
2022/11/30 15:53:50;;;;;;;6.22;4.85;;;;;;;;;;10441381;28;20090;-61
2022/11/30 15:59:24;;;;;;;4.85;3.40;;;;;;;;;;10436892;28;20021;-63
2022/11/30 16:04:25;;;;;;;5.25;4.00;;;;;;;;;;10431253;28;20098;-63
2022/11/30 16:09:32;;;;;;;5.35;3.65;;;;;;;;;;10453721;28;20223;-63
2022/11/30 16:14:32;;;;;;;4.82;4.05;;;;;;;;;;10453245;28;20033;-61
2022/11/30 16:19:33;;;;;;;6.85;3.83;;;;;;;;;;10452238;28;20477;-61
2022/11/30 16:24:33;;;;;;;4.97;3.60;;;;;;;;;;10452025;28;20510;-61
2022/11/30 16:29:34;;;;;;;4.65;4.13;;;;;;;;;;10452537;28;20491;-61
2022/11/30 16:34:34;;;;;;;4.82;3.75;;;;;;;;;;10451994;28;20503;-61
2022/11/30 16:39:35;;;;;;;6.90;3.67;;;;;;;;;;10451919;28;20468;-61
2022/11/30 16:44:36;;;;;;;5.38;3.38;;;;;;;;;;10451233;28;20480;-61
2022/11/30 16:49:36;;;;;;;4.28;3.88;;;;;;;;;;10451974;28;20028;-61
2022/11/30 16:54:37;;;;;;;4.47;3.72;;;;;;;;;;10442351;28;20029;-61
2022/11/30 16:59:37;;;;;;;4.78;3.95;;;;;;;;;;10451522;28;20029;-61
2022/11/30 17:04:39;;;;;;;4.72;3.75;;;;;;;;;;10451892;28;20052;-61
2022/11/30 17:09:40;;;;;;;6.00;3.65;;;;;;;;;;10451233;28;20116;-61
2022/11/30 17:14:40;;;;;;;6.90;3.55;;;;;;;;;;10450907;28;20044;-61
2022/11/30 17:19:41;;;;;;;4.07;3.42;;;;;;;;;;10444505;28;20021;-61
2022/11/30 17:24:41;;;;;;;3.95;3.28;;;;;;;;;;10440761;28;20495;-65
2022/11/30 17:29:42;;;;;;;4.35;3.60;;;;;;;;;;10443415;28;20037;-63
2022/11/30 17:34:43;;;;;;;5.35;4.15;;;;;;;;;;10438419;28;20017;-63
2022/11/30 17:39:43;;;;;;;6.07;4.60;;;;;;;;;;10449268;28;20040;-62
2022/11/30 17:44:44;;;;;;;6.30;4.18;;;;;;;;;;10443599;28;20086;-62
2022/11/30 17:49:44;;;;;;;7.00;4.40;;;;;;;;;;10448766;28;20025;-62
2022/11/30 17:54:45;;;;;;;6.03;4.57;;;;;;;;;;10458775;23;20045;-60
2022/11/30 17:59:45;;;;;;;5.45;4.40;;;;;;;;;;10446237;28;20060;-59
2022/11/30 18:04:55;;;;;;;7.10;4.35;;;;;;;;;;10241328;22;22951;-60
2022/11/30 18:10:08;;;;;;;8.55;4.53;;;;;;;;;;9549306;28;21656;-58
2022/11/30 18:15:09;;;;;;;7.45;4.90;;;;;;;;;;10418576;28;20027;-61
2022/11/30 18:20:11;;;;;;;6.22;4.72;;;;;;;;;;10475515;28;20074;-60
2022/11/30 18:25:14;;;;;;;12.77;5.20;;;;;;;;;;10483156;28;20037;-60
2022/11/30 18:30:14;;;;;;;7.65;5.32;;;;;;;;;;10469621;28;20036;-60
2022/11/30 18:35:15;;;;;;;7.50;4.60;;;;;;;;;;10477859;28;20039;-61
2022/11/30 18:40:16;;;;;;;11.57;5.50;;;;;;;;;;10485113;28;20032;-61
2022/11/30 18:45:17;;;;;;;11.65;5.00;;;;;;;;;;10487320;28;20169;-60
2022/11/30 18:50:17;;;;;;;12.18;6.47;;;;;;;;;;10484766;28;20541;-61
2022/11/30 18:55:18;;;;;;;58.00;39.08;;;;;;;;;;10480108;28;20683;-62
2022/11/30 19:00:19;;;;;;;74.47;47.97;;;;;;;;;;10482447;28;20037;-60
2022/11/30 19:05:34;;;;;;;67.13;43.80;;;;;;;;;;10483142;28;20245;-60
2022/11/30 19:10:38;;;;;;;72.53;46.22;;;;;;;;;;10481193;28;20025;-61
2022/11/30 19:15:40;;;;;;;67.47;48.35;;;;;;;;;;10482139;28;20036;-60
2022/11/30 19:20:41;;;;;;;81.03;52.78;;;;;;;;;;10487103;28;20029;-60
2022/11/30 19:25:41;;;;;;;81.38;55.90;;;;;;;;;;10496489;28;20036;-60
2022/11/30 19:30:44;;;;;;;84.93;58.80;;;;;;;;;;10496012;28;20848;-60
2022/11/30 19:35:44;;;;;;;122.15;84.13;;;;;;;;;;10492109;28;20036;-61
2022/11/30 19:40:45;;;;;;;122.80;83.28;;;;;;;;;;10486504;28;20028;-60
2022/11/30 19:45:45;;;;;;;118.40;81.60;;;;;;;;;;10491614;28;20036;-60
2022/11/30 19:50:46;;;;;;;115.25;81.03;;;;;;;;;;10487885;28;20028;-59
2022/11/30 19:55:47;;;;;;;115.85;80.63;;;;;;;;;;10490305;28;20021;-60
2022/11/30 20:00:48;;;;;;;107.60;77.40;;;;;;;;;;10494505;28;20017;-60
2022/11/30 20:05:49;;;;;;;112.03;76.72;;;;;;;;;;10493162;28;20040;-60
2022/11/30 20:10:50;;;;;;;112.80;77.20;;;;;;;;;;10495830;28;20052;-60
2022/11/30 20:15:51;;;;;;;107.78;75.20;;;;;;;;;;10488950;28;20452;-60
2022/11/30 20:20:51;;;;;;;106.85;75.20;;;;;;;;;;10485051;28;20025;-61
2022/11/30 20:25:52;;;;;;;106.95;74.35;;;;;;;;;;10481514;28;20028;-59
2022/11/30 20:30:53;;;;;;;111.13;75.88;;;;;;;;;;10488464;28;20553;-59
2022/11/30 20:35:53;;;;;;;111.85;74.70;;;;;;;;;;10490378;28;20383;-60
2022/11/30 20:40:54;;;;;;;105.15;74.28;;;;;;;;;;10484687;28;20418;-60
2022/11/30 20:45:55;;;;;;;105.97;74.32;;;;;;;;;;10482157;28;20051;-60
2022/11/30 20:50:55;;;;;;;104.22;73.10;;;;;;;;;;10484900;28;20024;-60
2022/11/30 20:55:59;;;;;;;106.95;73.93;;;;;;;;;;10481767;28;20399;-60
2022/11/30 21:01:00;;;;;;;104.53;73.32;;;;;;;;;;10487213;28;20029;-59
2022/11/30 21:06:01;;;;;;;103.35;73.78;;;;;;;;;;10490561;28;20315;-59
2022/11/30 21:11:14;;;;;;;98.65;71.18;;;;;;;;;;10485881;28;20608;-59
2022/11/30 21:16:18;;;;;;;102.25;72.78;;;;;;;;;;10482503;28;20032;-59
2022/11/30 21:21:22;;;;;;;105.65;71.93;;;;;;;;;;10491669;28;20025;-58
2022/11/30 21:26:26;;;;;;;101.90;72.53;;;;;;;;;;10484752;28;20032;-58
2022/11/30 21:31:28;;;;;;;99.97;69.50;;;;;;;;;;10487275;28;20036;-59
2022/11/30 21:36:28;;;;;;;101.32;70.28;;;;;;;;;;10484215;28;20036;-59
2022/11/30 21:41:29;;;;;;;98.88;68.50;;;;;;;;;;10481101;28;20388;-62
2022/11/30 21:46:30;;;;;;;99.60;69.63;;;;;;;;;;10483331;28;20032;-59
2022/11/30 21:51:31;;;;;;;95.55;68.07;;;;;;;;;;10481767;28;20423;-61
2022/11/30 21:56:35;;;;;;;96.97;67.15;;;;;;;;;;10472209;28;20479;-59
2022/11/30 22:01:40;;;;;;;93.05;65.28;;;;;;;;;;10485714;28;20179;-59
2022/11/30 22:06:41;;;;;;;95.75;66.30;;;;;;;;;;10489909;28;20052;-60
2022/11/30 22:11:44;;;;;;;92.75;64.55;;;;;;;;;;10484631;28;20446;-60
2022/11/30 22:16:44;;;;;;;91.68;65.43;;;;;;;;;;10485342;28;20111;-59
2022/11/30 22:21:46;;;;;;;92.80;63.85;;;;;;;;;;10478720;28;20040;-62
2022/11/30 22:26:47;;;;;;;91.07;62.40;;;;;;;;;;10480730;28;20028;-63
2022/11/30 22:31:51;;;;;;;90.47;62.05;;;;;;;;;;10485068;28;20527;-63
2022/11/30 22:36:51;;;;;;;92.07;61.80;;;;;;;;;;10482449;28;20039;-63
2022/11/30 22:41:52;;;;;;;88.10;61.35;;;;;;;;;;10486168;28;20036;-64
2022/11/30 22:46:53;;;;;;;87.25;60.28;;;;;;;;;;10487644;28;20040;-63
2022/11/30 22:51:53;;;;;;;82.28;59.08;;;;;;;;;;10487273;28;20028;-65
2022/11/30 22:56:54;;;;;;;80.97;58.85;;;;;;;;;;10491313;28;20027;-65
2022/11/30 23:01:54;;;;;;;84.70;59.15;;;;;;;;;;10492197;28;20063;-63
2022/11/30 23:06:56;;;;;;;79.20;55.30;;;;;;;;;;10491509;28;20052;-63
2022/11/30 23:11:57;;;;;;;85.30;55.50;;;;;;;;;;10473185;28;20365;-64
2022/11/30 23:16:57;;;;;;;86.03;54.72;;;;;;;;;;10488493;28;20082;-66
2022/11/30 23:21:58;;;;;;;78.25;54.33;;;;;;;;;;10496836;28;20495;-66
2022/11/30 23:26:58;;;;;;;80.45;53.55;;;;;;;;;;10493754;28;20400;-64
2022/11/30 23:31:59;;;;;;;79.20;54.90;;;;;;;;;;10495344;28;20442;-67
2022/11/30 23:37:00;;;;;;;77.95;54.83;;;;;;;;;;10496203;28;20032;-66
2022/11/30 23:42:00;;;;;;;70.20;50.63;;;;;;;;;;10495919;28;20376;-66
2022/11/30 23:47:01;;;;;;;73.88;52.20;;;;;;;;;;10486635;28;20415;-65
2022/11/30 23:52:01;;;;;;;76.00;50.75;;;;;;;;;;10484182;28;20029;-63
2022/11/30 23:57:02;;;;;;;67.13;48.67;;;;;;;;;;10482712;28;20024;-64
